sensor_id;sensor_type;location;lat;lon;timestamp;temperature;humidity
19340;HTU21D;9804;52.350;6.684;2022-11-03T00:02:15;14.25;-6.00
19340;HTU21D;9804;52.350;6.684;2022-11-03T00:04:40;14.43;-6.00
19340;HTU21D;9804;52.350;6.684;2022-11-03T00:07:05;14.39;-6.00
19340;HTU21D;9804;52.350;6.684;2022-11-03T00:09:31;14.22;-6.00
19340;HTU21D;9804;52.350;6.684;2022-11-03T00:11:56;14.29;-6.00
19340;HTU21D;9804;52.350;6.684;2022-11-03T00:14:22;14.38;-6.00
19340;HTU21D;9804;52.350;6.684;2022-11-03T00:16:47;14.23;-6.00
19340;HTU21D;9804;52.350;6.684;2022-11-03T00:19:13;14.24;-6.00
19340;HTU21D;9804;52.350;6.684;2022-11-03T00:21:40;14.23;-6.00
19340;HTU21D;9804;52.350;6.684;2022-11-03T00:24:05;14.17;-6.00
19340;HTU21D;9804;52.350;6.684;2022-11-03T00:26:32;14.33;-6.00
19340;HTU21D;9804;52.350;6.684;2022-11-03T00:29:00;14.27;-6.00
19340;HTU21D;9804;52.350;6.684;2022-11-03T00:31:31;14.32;-6.00
19340;HTU21D;9804;52.350;6.684;2022-11-03T00:33:58;14.32;-6.00
19340;HTU21D;9804;52.350;6.684;2022-11-03T00:36:35;14.38;-6.00
19340;HTU21D;9804;52.350;6.684;2022-11-03T00:39:01;14.23;-6.00
19340;HTU21D;9804;52.350;6.684;2022-11-03T00:41:27;14.14;-6.00
19340;HTU21D;9804;52.350;6.684;2022-11-03T00:43:53;14.27;-6.00
19340;HTU21D;9804;52.350;6.684;2022-11-03T00:46:19;14.28;-6.00
19340;HTU21D;9804;52.350;6.684;2022-11-03T00:48:45;14.48;-6.00
19340;HTU21D;9804;52.350;6.684;2022-11-03T00:51:13;14.48;-6.00
19340;HTU21D;9804;52.350;6.684;2022-11-03T00:53:41;14.52;-6.00
19340;HTU21D;9804;52.350;6.684;2022-11-03T00:56:10;14.33;-6.00
19340;HTU21D;9804;52.350;6.684;2022-11-03T00:58:35;14.27;-6.00
19340;HTU21D;9804;52.350;6.684;2022-11-03T01:01:15;14.36;-6.00
19340;HTU21D;9804;52.350;6.684;2022-11-03T01:03:43;14.32;-6.00
19340;HTU21D;9804;52.350;6.684;2022-11-03T01:06:28;14.25;-6.00
19340;HTU21D;9804;52.350;6.684;2022-11-03T01:09:12;14.25;-6.00
19340;HTU21D;9804;52.350;6.684;2022-11-03T01:11:38;14.39;-6.00
19340;HTU21D;9804;52.350;6.684;2022-11-03T01:14:11;14.47;-6.00
19340;HTU21D;9804;52.350;6.684;2022-11-03T01:16:36;14.42;-6.00
19340;HTU21D;9804;52.350;6.684;2022-11-03T01:19:02;14.37;-6.00
19340;HTU21D;9804;52.350;6.684;2022-11-03T01:21:28;14.30;-6.00
19340;HTU21D;9804;52.350;6.684;2022-11-03T01:23:53;14.28;-6.00
19340;HTU21D;9804;52.350;6.684;2022-11-03T01:26:19;14.26;-6.00
19340;HTU21D;9804;52.350;6.684;2022-11-03T01:28:45;14.28;-6.00
19340;HTU21D;9804;52.350;6.684;2022-11-03T01:31:14;14.39;-6.00
19340;HTU21D;9804;52.350;6.684;2022-11-03T01:33:40;14.21;-6.00
19340;HTU21D;9804;52.350;6.684;2022-11-03T01:36:07;14.10;-6.00
19340;HTU21D;9804;52.350;6.684;2022-11-03T01:38:34;14.12;-6.00
19340;HTU21D;9804;52.350;6.684;2022-11-03T01:41:01;14.26;-6.00
19340;HTU21D;9804;52.350;6.684;2022-11-03T01:43:27;14.09;-6.00
19340;HTU21D;9804;52.350;6.684;2022-11-03T01:48:31;14.33;-6.00
19340;HTU21D;9804;52.350;6.684;2022-11-03T01:50:58;14.27;-6.00
19340;HTU21D;9804;52.350;6.684;2022-11-03T01:53:25;14.14;-6.00
19340;HTU21D;9804;52.350;6.684;2022-11-03T01:55:53;14.08;-6.00
19340;HTU21D;9804;52.350;6.684;2022-11-03T01:58:22;14.09;-6.00
19340;HTU21D;9804;52.350;6.684;2022-11-03T02:00:53;14.20;-6.00
19340;HTU21D;9804;52.350;6.684;2022-11-03T02:03:20;14.12;-6.00
19340;HTU21D;9804;52.350;6.684;2022-11-03T02:05:47;14.20;-6.00
19340;HTU21D;9804;52.350;6.684;2022-11-03T02:08:21;14.21;-6.00
19340;HTU21D;9804;52.350;6.684;2022-11-03T02:10:48;14.18;-6.00
19340;HTU21D;9804;52.350;6.684;2022-11-03T02:13:19;14.25;-6.00
19340;HTU21D;9804;52.350;6.684;2022-11-03T02:15:54;14.07;-6.00
19340;HTU21D;9804;52.350;6.684;2022-11-03T02:18:26;14.05;-6.00
19340;HTU21D;9804;52.350;6.684;2022-11-03T02:21:46;14.18;-6.00
19340;HTU21D;9804;52.350;6.684;2022-11-03T02:23:58;14.17;-6.00
19340;HTU21D;9804;52.350;6.684;2022-11-03T02:26:26;14.20;-6.00
19340;HTU21D;9804;52.350;6.684;2022-11-03T02:28:51;14.12;-6.00
19340;HTU21D;9804;52.350;6.684;2022-11-03T02:31:27;14.32;-6.00
19340;HTU21D;9804;52.350;6.684;2022-11-03T02:34:05;14.07;-6.00
19340;HTU21D;9804;52.350;6.684;2022-11-03T02:36:39;14.08;-6.00
19340;HTU21D;9804;52.350;6.684;2022-11-03T02:39:30;14.03;-6.00
19340;HTU21D;9804;52.350;6.684;2022-11-03T02:42:00;14.20;-6.00
19340;HTU21D;9804;52.350;6.684;2022-11-03T02:44:28;14.30;-6.00
19340;HTU21D;9804;52.350;6.684;2022-11-03T02:46:57;14.15;-6.00
19340;HTU21D;9804;52.350;6.684;2022-11-03T02:49:23;14.07;-6.00
19340;HTU21D;9804;52.350;6.684;2022-11-03T02:52:00;14.07;-6.00
19340;HTU21D;9804;52.350;6.684;2022-11-03T02:54:32;13.98;-6.00
19340;HTU21D;9804;52.350;6.684;2022-11-03T02:57:15;14.23;-6.00
19340;HTU21D;9804;52.350;6.684;2022-11-03T02:59:58;14.03;-6.00
19340;HTU21D;9804;52.350;6.684;2022-11-03T03:02:28;14.10;-6.00
19340;HTU21D;9804;52.350;6.684;2022-11-03T03:04:59;14.23;-6.00
19340;HTU21D;9804;52.350;6.684;2022-11-03T03:07:29;14.06;-6.00
19340;HTU21D;9804;52.350;6.684;2022-11-03T03:12:55;14.06;-6.00
19340;HTU21D;9804;52.350;6.684;2022-11-03T03:20:57;14.17;-6.00
19340;HTU21D;9804;52.350;6.684;2022-11-03T03:23:26;14.15;-6.00
19340;HTU21D;9804;52.350;6.684;2022-11-03T03:26:13;14.00;-6.00
19340;HTU21D;9804;52.350;6.684;2022-11-03T03:28:46;14.10;-6.00
19340;HTU21D;9804;52.350;6.684;2022-11-03T03:31:15;14.11;-6.00
19340;HTU21D;9804;52.350;6.684;2022-11-03T03:33:44;14.15;-6.00
19340;HTU21D;9804;52.350;6.684;2022-11-03T03:36:13;14.05;-6.00
19340;HTU21D;9804;52.350;6.684;2022-11-03T03:38:43;14.18;-6.00
19340;HTU21D;9804;52.350;6.684;2022-11-03T03:41:12;14.06;-6.00
19340;HTU21D;9804;52.350;6.684;2022-11-03T03:43:49;14.11;-6.00
19340;HTU21D;9804;52.350;6.684;2022-11-03T03:46:17;14.17;-6.00
19340;HTU21D;9804;52.350;6.684;2022-11-03T03:48:44;14.11;-6.00
19340;HTU21D;9804;52.350;6.684;2022-11-03T03:51:10;14.20;-6.00
19340;HTU21D;9804;52.350;6.684;2022-11-03T03:53:36;14.05;-6.00
19340;HTU21D;9804;52.350;6.684;2022-11-03T03:56:02;14.30;-6.00
19340;HTU21D;9804;52.350;6.684;2022-11-03T03:58:30;14.25;-6.00
19340;HTU21D;9804;52.350;6.684;2022-11-03T04:00:55;14.28;-6.00
19340;HTU21D;9804;52.350;6.684;2022-11-03T04:03:23;14.19;-6.00
19340;HTU21D;9804;52.350;6.684;2022-11-03T04:05:49;14.20;-6.00
19340;HTU21D;9804;52.350;6.684;2022-11-03T04:08:16;14.14;-6.00
19340;HTU21D;9804;52.350;6.684;2022-11-03T04:10:42;13.98;-6.00
19340;HTU21D;9804;52.350;6.684;2022-11-03T04:13:27;14.07;-6.00
19340;HTU21D;9804;52.350;6.684;2022-11-03T04:16:11;14.19;-6.00
19340;HTU21D;9804;52.350;6.684;2022-11-03T04:18:56;14.26;-6.00
19340;HTU21D;9804;52.350;6.684;2022-11-03T04:21:40;14.13;-6.00
19340;HTU21D;9804;52.350;6.684;2022-11-03T04:24:24;14.17;-6.00
19340;HTU21D;9804;52.350;6.684;2022-11-03T04:26:49;14.14;-6.00
19340;HTU21D;9804;52.350;6.684;2022-11-03T04:29:15;14.06;-6.00
19340;HTU21D;9804;52.350;6.684;2022-11-03T04:31:40;14.25;-6.00
19340;HTU21D;9804;52.350;6.684;2022-11-03T04:34:10;14.05;-6.00
19340;HTU21D;9804;52.350;6.684;2022-11-03T04:36:36;13.99;-6.00
19340;HTU21D;9804;52.350;6.684;2022-11-03T04:41:59;13.96;-6.00
19340;HTU21D;9804;52.350;6.684;2022-11-03T04:44:26;14.07;-6.00
19340;HTU21D;9804;52.350;6.684;2022-11-03T04:46:52;14.10;-6.00
19340;HTU21D;9804;52.350;6.684;2022-11-03T04:49:21;13.86;-6.00
19340;HTU21D;9804;52.350;6.684;2022-11-03T04:51:48;14.12;-6.00
19340;HTU21D;9804;52.350;6.684;2022-11-03T04:54:18;14.06;-6.00
19340;HTU21D;9804;52.350;6.684;2022-11-03T04:56:45;14.13;-6.00
19340;HTU21D;9804;52.350;6.684;2022-11-03T04:59:12;13.93;-6.00
19340;HTU21D;9804;52.350;6.684;2022-11-03T05:01:38;14.11;-6.00
19340;HTU21D;9804;52.350;6.684;2022-11-03T05:04:07;14.15;-6.00
19340;HTU21D;9804;52.350;6.684;2022-11-03T05:06:35;14.22;-6.00
19340;HTU21D;9804;52.350;6.684;2022-11-03T05:09:07;14.18;-6.00
19340;HTU21D;9804;52.350;6.684;2022-11-03T05:11:37;14.05;-6.00
19340;HTU21D;9804;52.350;6.684;2022-11-03T05:14:17;14.19;-6.00
19340;HTU21D;9804;52.350;6.684;2022-11-03T05:16:42;14.25;-6.00
19340;HTU21D;9804;52.350;6.684;2022-11-03T05:19:26;14.07;-6.00
19340;HTU21D;9804;52.350;6.684;2022-11-03T05:21:55;14.12;-6.00
19340;HTU21D;9804;52.350;6.684;2022-11-03T05:24:21;14.17;-6.00
19340;HTU21D;9804;52.350;6.684;2022-11-03T05:26:50;14.17;-6.00
19340;HTU21D;9804;52.350;6.684;2022-11-03T05:29:22;14.06;-6.00
19340;HTU21D;9804;52.350;6.684;2022-11-03T05:31:49;14.20;-6.00
19340;HTU21D;9804;52.350;6.684;2022-11-03T05:34:37;14.34;-6.00
19340;HTU21D;9804;52.350;6.684;2022-11-03T05:39:34;14.08;-6.00
19340;HTU21D;9804;52.350;6.684;2022-11-03T05:42:00;14.25;-6.00
19340;HTU21D;9804;52.350;6.684;2022-11-03T05:44:35;14.37;-6.00
19340;HTU21D;9804;52.350;6.684;2022-11-03T05:47:11;14.22;-6.00
19340;HTU21D;9804;52.350;6.684;2022-11-03T05:49:37;14.19;-6.00
19340;HTU21D;9804;52.350;6.684;2022-11-03T05:52:05;14.23;-6.00
19340;HTU21D;9804;52.350;6.684;2022-11-03T05:54:36;14.39;-6.00
19340;HTU21D;9804;52.350;6.684;2022-11-03T05:57:10;14.21;-6.00
19340;HTU21D;9804;52.350;6.684;2022-11-03T05:59:37;14.18;-6.00
19340;HTU21D;9804;52.350;6.684;2022-11-03T06:02:19;14.26;-6.00
19340;HTU21D;9804;52.350;6.684;2022-11-03T06:04:47;14.47;-6.00
19340;HTU21D;9804;52.350;6.684;2022-11-03T06:07:23;14.37;-6.00
19340;HTU21D;9804;52.350;6.684;2022-11-03T06:09:51;14.52;-6.00
19340;HTU21D;9804;52.350;6.684;2022-11-03T06:12:18;14.59;-6.00
19340;HTU21D;9804;52.350;6.684;2022-11-03T06:14:44;14.63;-6.00
19340;HTU21D;9804;52.350;6.684;2022-11-03T06:17:21;14.51;-6.00
19340;HTU21D;9804;52.350;6.684;2022-11-03T06:19:49;14.67;-6.00
19340;HTU21D;9804;52.350;6.684;2022-11-03T06:22:30;14.65;-6.00
19340;HTU21D;9804;52.350;6.684;2022-11-03T06:25:15;14.59;-6.00
19340;HTU21D;9804;52.350;6.684;2022-11-03T06:27:45;14.66;-6.00
19340;HTU21D;9804;52.350;6.684;2022-11-03T06:30:31;14.50;-6.00
19340;HTU21D;9804;52.350;6.684;2022-11-03T06:33:01;14.44;-6.00
19340;HTU21D;9804;52.350;6.684;2022-11-03T06:35:28;14.51;-6.00
19340;HTU21D;9804;52.350;6.684;2022-11-03T06:37:55;14.78;-6.00
19340;HTU21D;9804;52.350;6.684;2022-11-03T06:42:50;14.69;-6.00
19340;HTU21D;9804;52.350;6.684;2022-11-03T06:45:23;14.72;-6.00
19340;HTU21D;9804;52.350;6.684;2022-11-03T06:47:53;14.62;-6.00
19340;HTU21D;9804;52.350;6.684;2022-11-03T06:50:23;14.59;-6.00
19340;HTU21D;9804;52.350;6.684;2022-11-03T06:52:51;14.65;-6.00
19340;HTU21D;9804;52.350;6.684;2022-11-03T06:55:20;14.59;-6.00
19340;HTU21D;9804;52.350;6.684;2022-11-03T06:57:47;14.49;-6.00
19340;HTU21D;9804;52.350;6.684;2022-11-03T07:00:19;14.66;-6.00
19340;HTU21D;9804;52.350;6.684;2022-11-03T07:05:21;14.81;-6.00
19340;HTU21D;9804;52.350;6.684;2022-11-03T07:07:47;14.70;-6.00
19340;HTU21D;9804;52.350;6.684;2022-11-03T07:10:12;14.68;-6.00
19340;HTU21D;9804;52.350;6.684;2022-11-03T07:12:39;14.63;-6.00
19340;HTU21D;9804;52.350;6.684;2022-11-03T07:15:19;14.64;-6.00
19340;HTU21D;9804;52.350;6.684;2022-11-03T07:17:47;14.71;-6.00
19340;HTU21D;9804;52.350;6.684;2022-11-03T07:20:14;14.63;-6.00
19340;HTU21D;9804;52.350;6.684;2022-11-03T07:22:40;14.72;-6.00
19340;HTU21D;9804;52.350;6.684;2022-11-03T07:25:13;14.78;-6.00
19340;HTU21D;9804;52.350;6.684;2022-11-03T07:27:39;14.74;-6.00
19340;HTU21D;9804;52.350;6.684;2022-11-03T07:30:18;15.07;-6.00
19340;HTU21D;9804;52.350;6.684;2022-11-03T07:32:44;15.04;-6.00
19340;HTU21D;9804;52.350;6.684;2022-11-03T07:37:41;15.10;-6.00
19340;HTU21D;9804;52.350;6.684;2022-11-03T07:40:21;15.09;-6.00
19340;HTU21D;9804;52.350;6.684;2022-11-03T07:42:47;15.16;-6.00
19340;HTU21D;9804;52.350;6.684;2022-11-03T07:45:43;15.06;-6.00
19340;HTU21D;9804;52.350;6.684;2022-11-03T07:48:57;15.31;-6.00
19340;HTU21D;9804;52.350;6.684;2022-11-03T07:51:25;15.26;-6.00
19340;HTU21D;9804;52.350;6.684;2022-11-03T07:53:54;15.11;-6.00
19340;HTU21D;9804;52.350;6.684;2022-11-03T07:56:25;15.41;-6.00
19340;HTU21D;9804;52.350;6.684;2022-11-03T07:59:21;15.27;-6.00
19340;HTU21D;9804;52.350;6.684;2022-11-03T08:01:53;15.40;-6.00
19340;HTU21D;9804;52.350;6.684;2022-11-03T08:04:26;15.46;-6.00
19340;HTU21D;9804;52.350;6.684;2022-11-03T08:06:52;15.67;-6.00
19340;HTU21D;9804;52.350;6.684;2022-11-03T08:09:18;15.67;-6.00
19340;HTU21D;9804;52.350;6.684;2022-11-03T08:11:44;15.58;-6.00
19340;HTU21D;9804;52.350;6.684;2022-11-03T08:14:09;15.75;-6.00
19340;HTU21D;9804;52.350;6.684;2022-11-03T08:16:35;15.86;-6.00
19340;HTU21D;9804;52.350;6.684;2022-11-03T08:19:00;16.00;-6.00
19340;HTU21D;9804;52.350;6.684;2022-11-03T08:21:26;15.95;-6.00
19340;HTU21D;9804;52.350;6.684;2022-11-03T08:23:51;16.02;-6.00
19340;HTU21D;9804;52.350;6.684;2022-11-03T08:26:17;15.73;-6.00
19340;HTU21D;9804;52.350;6.684;2022-11-03T08:28:42;15.87;-6.00
19340;HTU21D;9804;52.350;6.684;2022-11-03T08:31:07;16.08;-6.00
19340;HTU21D;9804;52.350;6.684;2022-11-03T08:33:34;16.29;-6.00
19340;HTU21D;9804;52.350;6.684;2022-11-03T08:36:00;15.87;-6.00
19340;HTU21D;9804;52.350;6.684;2022-11-03T08:38:26;16.12;-6.00
19340;HTU21D;9804;52.350;6.684;2022-11-03T08:40:53;16.12;-6.00
19340;HTU21D;9804;52.350;6.684;2022-11-03T08:43:18;16.08;-6.00
19340;HTU21D;9804;52.350;6.684;2022-11-03T08:45:44;16.43;-6.00
19340;HTU21D;9804;52.350;6.684;2022-11-03T08:48:10;16.41;-6.00
19340;HTU21D;9804;52.350;6.684;2022-11-03T08:50:35;16.25;-6.00
19340;HTU21D;9804;52.350;6.684;2022-11-03T08:53:00;16.40;-6.00
19340;HTU21D;9804;52.350;6.684;2022-11-03T08:55:26;16.62;-6.00
19340;HTU21D;9804;52.350;6.684;2022-11-03T08:57:51;16.74;-6.00
19340;HTU21D;9804;52.350;6.684;2022-11-03T09:00:17;16.76;-6.00
19340;HTU21D;9804;52.350;6.684;2022-11-03T09:02:43;16.82;-6.00
19340;HTU21D;9804;52.350;6.684;2022-11-03T09:05:09;16.76;-6.00
19340;HTU21D;9804;52.350;6.684;2022-11-03T09:07:34;16.85;-6.00
19340;HTU21D;9804;52.350;6.684;2022-11-03T09:10:00;17.10;-6.00
19340;HTU21D;9804;52.350;6.684;2022-11-03T09:12:25;17.16;-6.00
19340;HTU21D;9804;52.350;6.684;2022-11-03T09:14:50;17.21;-6.00
19340;HTU21D;9804;52.350;6.684;2022-11-03T09:17:16;17.11;-6.00
19340;HTU21D;9804;52.350;6.684;2022-11-03T09:19:41;17.22;-6.00
19340;HTU21D;9804;52.350;6.684;2022-11-03T09:22:06;17.09;-6.00
19340;HTU21D;9804;52.350;6.684;2022-11-03T09:24:32;17.07;-6.00
19340;HTU21D;9804;52.350;6.684;2022-11-03T09:26:57;17.18;-6.00
19340;HTU21D;9804;52.350;6.684;2022-11-03T09:29:22;16.87;-6.00
19340;HTU21D;9804;52.350;6.684;2022-11-03T09:31:48;17.33;-6.00
19340;HTU21D;9804;52.350;6.684;2022-11-03T09:34:13;17.29;-6.00
19340;HTU21D;9804;52.350;6.684;2022-11-03T09:36:39;17.52;-6.00
19340;HTU21D;9804;52.350;6.684;2022-11-03T09:39:04;17.55;-6.00
19340;HTU21D;9804;52.350;6.684;2022-11-03T09:41:30;17.31;-6.00
19340;HTU21D;9804;52.350;6.684;2022-11-03T09:43:57;17.58;-6.00
19340;HTU21D;9804;52.350;6.684;2022-11-03T09:46:24;17.38;-6.00
19340;HTU21D;9804;52.350;6.684;2022-11-03T09:48:50;17.77;-6.00
19340;HTU21D;9804;52.350;6.684;2022-11-03T09:51:20;17.79;-6.00
19340;HTU21D;9804;52.350;6.684;2022-11-03T09:53:46;17.99;-6.00
19340;HTU21D;9804;52.350;6.684;2022-11-03T09:56:12;18.02;-6.00
19340;HTU21D;9804;52.350;6.684;2022-11-03T09:58:37;18.21;-6.00
19340;HTU21D;9804;52.350;6.684;2022-11-03T10:01:04;18.19;-6.00
19340;HTU21D;9804;52.350;6.684;2022-11-03T10:03:30;18.32;-6.00
19340;HTU21D;9804;52.350;6.684;2022-11-03T10:05:55;18.30;-6.00
19340;HTU21D;9804;52.350;6.684;2022-11-03T10:08:26;18.42;-6.00
19340;HTU21D;9804;52.350;6.684;2022-11-03T10:10:53;18.27;-6.00
19340;HTU21D;9804;52.350;6.684;2022-11-03T10:13:33;18.20;-6.00
19340;HTU21D;9804;52.350;6.684;2022-11-03T10:16:02;18.49;-6.00
19340;HTU21D;9804;52.350;6.684;2022-11-03T10:18:29;18.67;-6.00
19340;HTU21D;9804;52.350;6.684;2022-11-03T10:20:57;18.70;-6.00
19340;HTU21D;9804;52.350;6.684;2022-11-03T10:23:27;18.70;-6.00
19340;HTU21D;9804;52.350;6.684;2022-11-03T10:26:02;18.34;-6.00
19340;HTU21D;9804;52.350;6.684;2022-11-03T10:28:32;18.66;-6.00
19340;HTU21D;9804;52.350;6.684;2022-11-03T10:31:00;18.62;-6.00
19340;HTU21D;9804;52.350;6.684;2022-11-03T10:33:29;18.79;-6.00
19340;HTU21D;9804;52.350;6.684;2022-11-03T10:35:59;18.74;-6.00
19340;HTU21D;9804;52.350;6.684;2022-11-03T10:38:30;18.57;-6.00
19340;HTU21D;9804;52.350;6.684;2022-11-03T10:43:35;18.43;-6.00
19340;HTU21D;9804;52.350;6.684;2022-11-03T10:46:21;18.49;-6.00
19340;HTU21D;9804;52.350;6.684;2022-11-03T10:51:36;18.46;-6.00
19340;HTU21D;9804;52.350;6.684;2022-11-03T10:54:04;18.39;-6.00
19340;HTU21D;9804;52.350;6.684;2022-11-03T10:56:31;18.42;-6.00
19340;HTU21D;9804;52.350;6.684;2022-11-03T10:58:58;18.47;-6.00
19340;HTU21D;9804;52.350;6.684;2022-11-03T11:01:24;18.49;-6.00
19340;HTU21D;9804;52.350;6.684;2022-11-03T11:03:49;18.43;-6.00
19340;HTU21D;9804;52.350;6.684;2022-11-03T11:06:27;18.79;-6.00
19340;HTU21D;9804;52.350;6.684;2022-11-03T11:08:58;18.82;-6.00
19340;HTU21D;9804;52.350;6.684;2022-11-03T11:11:24;18.61;-6.00
19340;HTU21D;9804;52.350;6.684;2022-11-03T11:16:57;18.56;-6.00
19340;HTU21D;9804;52.350;6.684;2022-11-03T11:19:24;18.71;-6.00
19340;HTU21D;9804;52.350;6.684;2022-11-03T11:29:59;18.87;-6.00
19340;HTU21D;9804;52.350;6.684;2022-11-03T11:35:07;18.92;-6.00
19340;HTU21D;9804;52.350;6.684;2022-11-03T11:37:35;18.96;-6.00
19340;HTU21D;9804;52.350;6.684;2022-11-03T11:40:02;18.89;-6.00
19340;HTU21D;9804;52.350;6.684;2022-11-03T11:42:27;18.59;-6.00
19340;HTU21D;9804;52.350;6.684;2022-11-03T11:44:58;18.71;-6.00
19340;HTU21D;9804;52.350;6.684;2022-11-03T11:47:29;18.74;-6.00
19340;HTU21D;9804;52.350;6.684;2022-11-03T11:52:49;18.78;-6.00
19340;HTU21D;9804;52.350;6.684;2022-11-03T11:58:01;18.94;-6.00
19340;HTU21D;9804;52.350;6.684;2022-11-03T12:00:30;18.98;-6.00
19340;HTU21D;9804;52.350;6.684;2022-11-03T12:02:56;19.07;-6.00
19340;HTU21D;9804;52.350;6.684;2022-11-03T12:05:25;19.18;-6.00
19340;HTU21D;9804;52.350;6.684;2022-11-03T12:07:53;19.20;-6.00
19340;HTU21D;9804;52.350;6.684;2022-11-03T12:10:24;19.18;-6.00
19340;HTU21D;9804;52.350;6.684;2022-11-03T12:12:53;19.14;-6.00
19340;HTU21D;9804;52.350;6.684;2022-11-03T12:15:53;19.10;-6.00
19340;HTU21D;9804;52.350;6.684;2022-11-03T12:18:34;19.13;-6.00
19340;HTU21D;9804;52.350;6.684;2022-11-03T12:21:01;19.18;-6.00
19340;HTU21D;9804;52.350;6.684;2022-11-03T12:23:31;19.41;-6.00
19340;HTU21D;9804;52.350;6.684;2022-11-03T12:25:57;19.51;-6.00
19340;HTU21D;9804;52.350;6.684;2022-11-03T12:28:35;19.65;-6.00
19340;HTU21D;9804;52.350;6.684;2022-11-03T12:31:02;20.14;-6.00
19340;HTU21D;9804;52.350;6.684;2022-11-03T12:33:27;20.06;-6.00
19340;HTU21D;9804;52.350;6.684;2022-11-03T12:35:54;19.99;-6.00
19340;HTU21D;9804;52.350;6.684;2022-11-03T12:38:20;19.69;-6.00
19340;HTU21D;9804;52.350;6.684;2022-11-03T12:40:45;19.63;-6.00
19340;HTU21D;9804;52.350;6.684;2022-11-03T12:43:10;19.62;-6.00
19340;HTU21D;9804;52.350;6.684;2022-11-03T12:45:36;19.67;-6.00
19340;HTU21D;9804;52.350;6.684;2022-11-03T12:48:01;19.40;-6.00
19340;HTU21D;9804;52.350;6.684;2022-11-03T12:50:26;19.21;-6.00
19340;HTU21D;9804;52.350;6.684;2022-11-03T12:52:51;19.31;-6.00
19340;HTU21D;9804;52.350;6.684;2022-11-03T12:55:17;19.28;-6.00
19340;HTU21D;9804;52.350;6.684;2022-11-03T12:57:42;19.36;-6.00
19340;HTU21D;9804;52.350;6.684;2022-11-03T13:00:10;19.32;-6.00
19340;HTU21D;9804;52.350;6.684;2022-11-03T13:02:36;19.24;-6.00
19340;HTU21D;9804;52.350;6.684;2022-11-03T13:05:02;19.24;-6.00
19340;HTU21D;9804;52.350;6.684;2022-11-03T13:07:27;19.44;-6.00
19340;HTU21D;9804;52.350;6.684;2022-11-03T13:09:53;19.37;-6.00
19340;HTU21D;9804;52.350;6.684;2022-11-03T13:12:18;19.30;-6.00
19340;HTU21D;9804;52.350;6.684;2022-11-03T13:15:03;19.27;-6.00
19340;HTU21D;9804;52.350;6.684;2022-11-03T13:17:28;19.32;-6.00
19340;HTU21D;9804;52.350;6.684;2022-11-03T13:19:54;19.63;-6.00
19340;HTU21D;9804;52.350;6.684;2022-11-03T13:22:19;19.69;-6.00
19340;HTU21D;9804;52.350;6.684;2022-11-03T13:24:45;19.68;-6.00
19340;HTU21D;9804;52.350;6.684;2022-11-03T13:27:10;19.53;-6.00
19340;HTU21D;9804;52.350;6.684;2022-11-03T13:29:36;19.55;-6.00
19340;HTU21D;9804;52.350;6.684;2022-11-03T13:32:02;19.53;-6.00
19340;HTU21D;9804;52.350;6.684;2022-11-03T13:34:28;19.55;-6.00
19340;HTU21D;9804;52.350;6.684;2022-11-03T13:36:54;19.45;-6.00
19340;HTU21D;9804;52.350;6.684;2022-11-03T13:39:19;19.29;-6.00
19340;HTU21D;9804;52.350;6.684;2022-11-03T13:41:45;19.38;-6.00
19340;HTU21D;9804;52.350;6.684;2022-11-03T13:44:10;19.61;-6.00
19340;HTU21D;9804;52.350;6.684;2022-11-03T13:46:36;19.53;-6.00
19340;HTU21D;9804;52.350;6.684;2022-11-03T13:49:01;19.68;-6.00
19340;HTU21D;9804;52.350;6.684;2022-11-03T13:51:26;19.63;-6.00
19340;HTU21D;9804;52.350;6.684;2022-11-03T13:53:52;19.65;-6.00
19340;HTU21D;9804;52.350;6.684;2022-11-03T13:56:17;19.46;-6.00
19340;HTU21D;9804;52.350;6.684;2022-11-03T13:58:42;19.67;-6.00
19340;HTU21D;9804;52.350;6.684;2022-11-03T14:01:08;19.38;-6.00
19340;HTU21D;9804;52.350;6.684;2022-11-03T14:03:33;19.61;-6.00
19340;HTU21D;9804;52.350;6.684;2022-11-03T14:05:58;19.50;-6.00
19340;HTU21D;9804;52.350;6.684;2022-11-03T14:08:24;19.59;-6.00
19340;HTU21D;9804;52.350;6.684;2022-11-03T14:10:49;19.80;-6.00
19340;HTU21D;9804;52.350;6.684;2022-11-03T14:13:14;19.75;-6.00
19340;HTU21D;9804;52.350;6.684;2022-11-03T14:15:40;19.60;-6.00
19340;HTU21D;9804;52.350;6.684;2022-11-03T14:18:05;19.68;-6.00
19340;HTU21D;9804;52.350;6.684;2022-11-03T14:20:30;19.62;-6.00
19340;HTU21D;9804;52.350;6.684;2022-11-03T14:22:56;19.27;-6.00
19340;HTU21D;9804;52.350;6.684;2022-11-03T14:25:21;19.28;-6.00
19340;HTU21D;9804;52.350;6.684;2022-11-03T14:27:47;19.29;-6.00
19340;HTU21D;9804;52.350;6.684;2022-11-03T14:30:12;19.12;-6.00
19340;HTU21D;9804;52.350;6.684;2022-11-03T14:32:38;19.01;-6.00
19340;HTU21D;9804;52.350;6.684;2022-11-03T14:35:04;18.80;-6.00
19340;HTU21D;9804;52.350;6.684;2022-11-03T14:37:29;19.01;-6.00
19340;HTU21D;9804;52.350;6.684;2022-11-03T14:39:54;19.07;-6.00
19340;HTU21D;9804;52.350;6.684;2022-11-03T14:42:20;19.20;-6.00
19340;HTU21D;9804;52.350;6.684;2022-11-03T14:44:46;19.12;-6.00
19340;HTU21D;9804;52.350;6.684;2022-11-03T14:47:16;19.07;-6.00
19340;HTU21D;9804;52.350;6.684;2022-11-03T14:49:42;18.99;-6.00
19340;HTU21D;9804;52.350;6.684;2022-11-03T14:52:08;18.84;-6.00
19340;HTU21D;9804;52.350;6.684;2022-11-03T14:54:34;18.99;-6.00
19340;HTU21D;9804;52.350;6.684;2022-11-03T14:57:00;18.86;-6.00
19340;HTU21D;9804;52.350;6.684;2022-11-03T14:59:26;18.67;-6.00
19340;HTU21D;9804;52.350;6.684;2022-11-03T15:01:52;18.77;-6.00
19340;HTU21D;9804;52.350;6.684;2022-11-03T15:04:18;18.77;-6.00
19340;HTU21D;9804;52.350;6.684;2022-11-03T15:06:43;18.69;-6.00
19340;HTU21D;9804;52.350;6.684;2022-11-03T15:09:09;18.72;-6.00
19340;HTU21D;9804;52.350;6.684;2022-11-03T15:11:35;18.83;-6.00
19340;HTU21D;9804;52.350;6.684;2022-11-03T15:14:00;18.56;-6.00
19340;HTU21D;9804;52.350;6.684;2022-11-03T15:16:27;18.56;-6.00
19340;HTU21D;9804;52.350;6.684;2022-11-03T15:18:52;18.51;-6.00
19340;HTU21D;9804;52.350;6.684;2022-11-03T15:21:18;18.48;-6.00
19340;HTU21D;9804;52.350;6.684;2022-11-03T15:23:43;18.41;-6.00
19340;HTU21D;9804;52.350;6.684;2022-11-03T15:26:09;18.33;-6.00
19340;HTU21D;9804;52.350;6.684;2022-11-03T15:28:36;18.36;-6.00
19340;HTU21D;9804;52.350;6.684;2022-11-03T15:31:01;18.42;-6.00
19340;HTU21D;9804;52.350;6.684;2022-11-03T15:33:27;18.32;-6.00
19340;HTU21D;9804;52.350;6.684;2022-11-03T15:35:52;18.32;-6.00
19340;HTU21D;9804;52.350;6.684;2022-11-03T15:38:18;18.24;-6.00
19340;HTU21D;9804;52.350;6.684;2022-11-03T15:40:43;17.82;-6.00
19340;HTU21D;9804;52.350;6.684;2022-11-03T15:43:09;17.89;-6.00
19340;HTU21D;9804;52.350;6.684;2022-11-03T15:45:34;17.84;-6.00
19340;HTU21D;9804;52.350;6.684;2022-11-03T15:48:00;17.48;-6.00
19340;HTU21D;9804;52.350;6.684;2022-11-03T15:50:25;17.13;-6.00
19340;HTU21D;9804;52.350;6.684;2022-11-03T15:52:52;16.96;-6.00
19340;HTU21D;9804;52.350;6.684;2022-11-03T15:55:18;16.96;-6.00
19340;HTU21D;9804;52.350;6.684;2022-11-03T15:57:43;16.78;-6.00
19340;HTU21D;9804;52.350;6.684;2022-11-03T16:00:10;16.66;-6.00
19340;HTU21D;9804;52.350;6.684;2022-11-03T16:02:36;16.72;-6.00
19340;HTU21D;9804;52.350;6.684;2022-11-03T16:05:02;16.80;-6.00
19340;HTU21D;9804;52.350;6.684;2022-11-03T16:07:28;16.56;-6.00
19340;HTU21D;9804;52.350;6.684;2022-11-03T16:09:53;16.41;-6.00
19340;HTU21D;9804;52.350;6.684;2022-11-03T16:12:19;16.12;-6.00
19340;HTU21D;9804;52.350;6.684;2022-11-03T16:14:45;16.00;-6.00
19340;HTU21D;9804;52.350;6.684;2022-11-03T16:17:11;16.20;-6.00
19340;HTU21D;9804;52.350;6.684;2022-11-03T16:19:36;16.33;-6.00
19340;HTU21D;9804;52.350;6.684;2022-11-03T16:22:01;16.25;-6.00
19340;HTU21D;9804;52.350;6.684;2022-11-03T16:24:27;16.18;-6.00
19340;HTU21D;9804;52.350;6.684;2022-11-03T16:26:52;16.13;-6.00
19340;HTU21D;9804;52.350;6.684;2022-11-03T16:29:17;16.06;-6.00